sensor_id;sensor_type;location;lat;lon;timestamp;P1;durP1;ratioP1;P2;durP2;ratioP2
9834;SDS011;69850;50.942;13.748;2023-09-12T00:02:05;23.30;;;17.23;;
9834;SDS011;69850;50.942;13.748;2023-09-12T00:05:26;20.42;;;16.73;;
9834;SDS011;69850;50.942;13.748;2023-09-12T00:08:47;19.02;;;15.05;;
9834;SDS011;69850;50.942;13.748;2023-09-12T00:12:08;17.25;;;14.93;;
9834;SDS011;69850;50.942;13.748;2023-09-12T00:15:28;20.38;;;15.48;;
9834;SDS011;69850;50.942;13.748;2023-09-12T00:18:49;19.33;;;16.27;;
9834;SDS011;69850;50.942;13.748;2023-09-12T00:22:10;19.73;;;15.13;;
9834;SDS011;69850;50.942;13.748;2023-09-12T00:25:31;19.38;;;14.38;;
9834;SDS011;69850;50.942;13.748;2023-09-12T00:28:51;20.27;;;15.70;;
9834;SDS011;69850;50.942;13.748;2023-09-12T00:32:12;19.58;;;14.38;;
9834;SDS011;69850;50.942;13.748;2023-09-12T00:35:33;17.75;;;15.45;;
9834;SDS011;69850;50.942;13.748;2023-09-12T00:38:53;21.40;;;15.48;;
9834;SDS011;69850;50.942;13.748;2023-09-12T00:42:14;21.10;;;16.40;;
9834;SDS011;69850;50.942;13.748;2023-09-12T00:45:35;20.02;;;15.57;;
9834;SDS011;69850;50.942;13.748;2023-09-12T00:48:56;20.88;;;15.15;;
9834;SDS011;69850;50.942;13.748;2023-09-12T00:52:18;15.73;;;11.45;;
9834;SDS011;69850;50.942;13.748;2023-09-12T00:55:40;19.63;;;13.48;;
9834;SDS011;69850;50.942;13.748;2023-09-12T00:59:06;18.45;;;13.40;;
9834;SDS011;69850;50.942;13.748;2023-09-12T01:02:27;20.55;;;13.70;;
9834;SDS011;69850;50.942;13.748;2023-09-12T01:05:48;15.90;;;12.75;;
9834;SDS011;69850;50.942;13.748;2023-09-12T01:09:09;17.52;;;13.55;;
9834;SDS011;69850;50.942;13.748;2023-09-12T01:12:29;17.30;;;14.30;;
9834;SDS011;69850;50.942;13.748;2023-09-12T01:15:50;16.95;;;14.23;;
9834;SDS011;69850;50.942;13.748;2023-09-12T01:19:11;21.88;;;14.75;;
9834;SDS011;69850;50.942;13.748;2023-09-12T01:22:40;17.15;;;14.32;;
9834;SDS011;69850;50.942;13.748;2023-09-12T01:26:17;22.02;;;14.48;;
9834;SDS011;69850;50.942;13.748;2023-09-12T01:29:44;17.42;;;14.23;;
9834;SDS011;69850;50.942;13.748;2023-09-12T01:33:06;18.33;;;14.40;;
9834;SDS011;69850;50.942;13.748;2023-09-12T01:36:27;18.77;;;15.10;;
9834;SDS011;69850;50.942;13.748;2023-09-12T01:39:48;18.33;;;14.80;;
9834;SDS011;69850;50.942;13.748;2023-09-12T01:43:09;22.00;;;14.80;;
9834;SDS011;69850;50.942;13.748;2023-09-12T01:46:30;18.15;;;13.98;;
9834;SDS011;69850;50.942;13.748;2023-09-12T01:49:52;18.85;;;14.88;;
9834;SDS011;69850;50.942;13.748;2023-09-12T01:53:17;21.85;;;14.55;;
9834;SDS011;69850;50.942;13.748;2023-09-12T01:56:38;18.20;;;13.25;;
9834;SDS011;69850;50.942;13.748;2023-09-12T02:00:00;19.23;;;14.40;;
9834;SDS011;69850;50.942;13.748;2023-09-12T02:03:20;20.02;;;15.27;;
9834;SDS011;69850;50.942;13.748;2023-09-12T02:06:41;17.35;;;14.32;;
9834;SDS011;69850;50.942;13.748;2023-09-12T02:10:02;23.45;;;16.00;;
9834;SDS011;69850;50.942;13.748;2023-09-12T02:13:24;21.85;;;15.80;;
9834;SDS011;69850;50.942;13.748;2023-09-12T02:16:45;17.85;;;15.50;;
9834;SDS011;69850;50.942;13.748;2023-09-12T02:20:07;18.63;;;15.50;;
9834;SDS011;69850;50.942;13.748;2023-09-12T02:23:29;20.35;;;15.95;;
9834;SDS011;69850;50.942;13.748;2023-09-12T02:26:49;19.50;;;16.25;;
9834;SDS011;69850;50.942;13.748;2023-09-12T02:30:10;21.40;;;16.20;;
9834;SDS011;69850;50.942;13.748;2023-09-12T02:33:31;19.65;;;16.00;;
9834;SDS011;69850;50.942;13.748;2023-09-12T02:36:52;21.10;;;15.68;;
9834;SDS011;69850;50.942;13.748;2023-09-12T02:40:13;20.80;;;14.90;;
9834;SDS011;69850;50.942;13.748;2023-09-12T02:43:34;16.35;;;10.88;;
9834;SDS011;69850;50.942;13.748;2023-09-12T02:46:55;17.55;;;14.02;;
9834;SDS011;69850;50.942;13.748;2023-09-12T02:50:16;18.95;;;14.10;;
9834;SDS011;69850;50.942;13.748;2023-09-12T02:53:37;20.33;;;14.70;;
9834;SDS011;69850;50.942;13.748;2023-09-12T02:56:57;18.95;;;14.95;;
9834;SDS011;69850;50.942;13.748;2023-09-12T03:00:18;19.08;;;15.18;;
9834;SDS011;69850;50.942;13.748;2023-09-12T03:03:40;25.73;;;15.43;;
9834;SDS011;69850;50.942;13.748;2023-09-12T03:07:01;24.83;;;16.95;;
9834;SDS011;69850;50.942;13.748;2023-09-12T03:10:21;23.30;;;16.48;;
9834;SDS011;69850;50.942;13.748;2023-09-12T03:13:42;24.63;;;17.10;;
9834;SDS011;69850;50.942;13.748;2023-09-12T03:17:03;21.60;;;16.52;;
9834;SDS011;69850;50.942;13.748;2023-09-12T03:20:24;19.40;;;15.77;;
9834;SDS011;69850;50.942;13.748;2023-09-12T03:23:45;20.13;;;15.23;;
9834;SDS011;69850;50.942;13.748;2023-09-12T03:27:06;18.80;;;14.73;;
9834;SDS011;69850;50.942;13.748;2023-09-12T03:30:28;20.08;;;15.10;;
9834;SDS011;69850;50.942;13.748;2023-09-12T03:33:48;20.35;;;14.40;;
9834;SDS011;69850;50.942;13.748;2023-09-12T03:37:11;22.52;;;15.88;;
9834;SDS011;69850;50.942;13.748;2023-09-12T03:40:32;25.02;;;16.10;;
9834;SDS011;69850;50.942;13.748;2023-09-12T03:43:53;20.63;;;13.77;;
9834;SDS011;69850;50.942;13.748;2023-09-12T03:47:15;19.00;;;14.43;;
9834;SDS011;69850;50.942;13.748;2023-09-12T03:50:36;18.30;;;14.35;;
9834;SDS011;69850;50.942;13.748;2023-09-12T03:53:56;18.40;;;13.15;;
9834;SDS011;69850;50.942;13.748;2023-09-12T03:57:18;18.15;;;13.10;;
9834;SDS011;69850;50.942;13.748;2023-09-12T04:00:38;18.52;;;13.85;;
9834;SDS011;69850;50.942;13.748;2023-09-12T04:03:59;18.40;;;14.55;;
9834;SDS011;69850;50.942;13.748;2023-09-12T04:07:20;21.73;;;14.95;;
9834;SDS011;69850;50.942;13.748;2023-09-12T04:10:41;21.95;;;15.77;;
9834;SDS011;69850;50.942;13.748;2023-09-12T04:14:02;22.42;;;17.17;;
9834;SDS011;69850;50.942;13.748;2023-09-12T04:17:23;20.92;;;16.98;;
9834;SDS011;69850;50.942;13.748;2023-09-12T04:20:44;20.92;;;14.90;;
9834;SDS011;69850;50.942;13.748;2023-09-12T04:24:05;17.90;;;14.13;;
9834;SDS011;69850;50.942;13.748;2023-09-12T04:27:26;20.42;;;15.32;;
9834;SDS011;69850;50.942;13.748;2023-09-12T04:30:47;24.88;;;15.70;;
9834;SDS011;69850;50.942;13.748;2023-09-12T04:34:08;21.02;;;15.95;;
9834;SDS011;69850;50.942;13.748;2023-09-12T04:37:29;17.77;;;13.18;;
9834;SDS011;69850;50.942;13.748;2023-09-12T04:40:54;17.38;;;13.75;;
9834;SDS011;69850;50.942;13.748;2023-09-12T04:44:16;18.80;;;13.77;;
9834;SDS011;69850;50.942;13.748;2023-09-12T04:47:37;20.58;;;14.65;;
9834;SDS011;69850;50.942;13.748;2023-09-12T04:50:59;19.80;;;13.90;;
9834;SDS011;69850;50.942;13.748;2023-09-12T04:54:20;22.95;;;12.77;;
9834;SDS011;69850;50.942;13.748;2023-09-12T04:57:40;17.58;;;12.10;;
9834;SDS011;69850;50.942;13.748;2023-09-12T05:01:01;14.35;;;11.13;;
9834;SDS011;69850;50.942;13.748;2023-09-12T05:04:23;15.25;;;10.57;;
9834;SDS011;69850;50.942;13.748;2023-09-12T05:07:43;12.88;;;10.68;;
9834;SDS011;69850;50.942;13.748;2023-09-12T05:11:04;16.27;;;10.30;;
9834;SDS011;69850;50.942;13.748;2023-09-12T05:14:25;14.48;;;9.73;;
9834;SDS011;69850;50.942;13.748;2023-09-12T05:17:46;14.32;;;9.20;;
9834;SDS011;69850;50.942;13.748;2023-09-12T05:21:07;10.98;;;8.60;;
9834;SDS011;69850;50.942;13.748;2023-09-12T05:24:27;12.98;;;8.27;;
9834;SDS011;69850;50.942;13.748;2023-09-12T05:27:48;11.45;;;8.23;;
9834;SDS011;69850;50.942;13.748;2023-09-12T05:31:09;10.38;;;8.02;;
9834;SDS011;69850;50.942;13.748;2023-09-12T05:34:30;10.57;;;8.75;;
9834;SDS011;69850;50.942;13.748;2023-09-12T05:37:51;12.60;;;8.27;;
9834;SDS011;69850;50.942;13.748;2023-09-12T05:41:12;12.02;;;8.73;;
9834;SDS011;69850;50.942;13.748;2023-09-12T05:44:33;13.85;;;8.20;;
9834;SDS011;69850;50.942;13.748;2023-09-12T05:47:53;12.60;;;8.02;;
9834;SDS011;69850;50.942;13.748;2023-09-12T05:51:14;11.82;;;8.23;;
9834;SDS011;69850;50.942;13.748;2023-09-12T05:54:35;12.85;;;8.18;;
9834;SDS011;69850;50.942;13.748;2023-09-12T05:57:56;11.88;;;8.43;;
9834;SDS011;69850;50.942;13.748;2023-09-12T06:01:17;11.15;;;8.68;;
9834;SDS011;69850;50.942;13.748;2023-09-12T06:04:37;13.10;;;9.02;;
9834;SDS011;69850;50.942;13.748;2023-09-12T06:07:58;14.80;;;8.90;;
9834;SDS011;69850;50.942;13.748;2023-09-12T06:11:19;11.70;;;9.07;;
9834;SDS011;69850;50.942;13.748;2023-09-12T06:14:40;10.93;;;8.50;;
9834;SDS011;69850;50.942;13.748;2023-09-12T06:18:00;12.82;;;8.88;;
9834;SDS011;69850;50.942;13.748;2023-09-12T06:21:21;9.90;;;8.35;;
9834;SDS011;69850;50.942;13.748;2023-09-12T06:24:44;15.15;;;8.10;;
9834;SDS011;69850;50.942;13.748;2023-09-12T06:28:05;11.50;;;8.38;;
9834;SDS011;69850;50.942;13.748;2023-09-12T06:31:28;9.52;;;8.25;;
9834;SDS011;69850;50.942;13.748;2023-09-12T06:34:49;14.63;;;8.05;;
9834;SDS011;69850;50.942;13.748;2023-09-12T06:38:10;14.45;;;8.57;;
9834;SDS011;69850;50.942;13.748;2023-09-12T06:41:32;10.98;;;8.38;;
9834;SDS011;69850;50.942;13.748;2023-09-12T06:44:53;11.10;;;8.23;;
9834;SDS011;69850;50.942;13.748;2023-09-12T06:48:14;9.48;;;8.18;;
9834;SDS011;69850;50.942;13.748;2023-09-12T06:51:36;11.88;;;8.52;;
9834;SDS011;69850;50.942;13.748;2023-09-12T06:54:57;10.02;;;8.80;;
9834;SDS011;69850;50.942;13.748;2023-09-12T06:58:18;13.88;;;8.32;;
9834;SDS011;69850;50.942;13.748;2023-09-12T07:01:39;13.23;;;8.23;;
9834;SDS011;69850;50.942;13.748;2023-09-12T07:04:59;15.90;;;7.82;;
9834;SDS011;69850;50.942;13.748;2023-09-12T07:08:20;11.45;;;7.13;;
9834;SDS011;69850;50.942;13.748;2023-09-12T07:11:41;8.68;;;7.22;;
9834;SDS011;69850;50.942;13.748;2023-09-12T07:15:01;12.13;;;7.90;;
9834;SDS011;69850;50.942;13.748;2023-09-12T07:18:22;11.48;;;7.57;;
9834;SDS011;69850;50.942;13.748;2023-09-12T07:21:43;9.88;;;7.45;;
9834;SDS011;69850;50.942;13.748;2023-09-12T07:25:04;10.20;;;7.18;;
9834;SDS011;69850;50.942;13.748;2023-09-12T07:28:25;9.25;;;7.32;;
9834;SDS011;69850;50.942;13.748;2023-09-12T07:31:46;9.52;;;7.35;;
9834;SDS011;69850;50.942;13.748;2023-09-12T07:35:07;9.00;;;6.75;;
9834;SDS011;69850;50.942;13.748;2023-09-12T07:38:28;10.48;;;7.63;;
9834;SDS011;69850;50.942;13.748;2023-09-12T07:41:51;12.02;;;7.55;;
9834;SDS011;69850;50.942;13.748;2023-09-12T07:45:11;12.00;;;7.65;;
9834;SDS011;69850;50.942;13.748;2023-09-12T07:48:33;9.85;;;6.90;;
9834;SDS011;69850;50.942;13.748;2023-09-12T07:51:53;9.77;;;6.93;;
9834;SDS011;69850;50.942;13.748;2023-09-12T07:55:17;17.70;;;7.93;;
9834;SDS011;69850;50.942;13.748;2023-09-12T07:58:37;12.90;;;7.20;;
9834;SDS011;69850;50.942;13.748;2023-09-12T08:01:58;10.40;;;6.30;;
9834;SDS011;69850;50.942;13.748;2023-09-12T08:05:19;9.70;;;6.72;;
9834;SDS011;69850;50.942;13.748;2023-09-12T08:08:40;13.80;;;7.47;;
9834;SDS011;69850;50.942;13.748;2023-09-12T08:12:01;10.75;;;6.85;;
9834;SDS011;69850;50.942;13.748;2023-09-12T08:15:21;10.32;;;6.82;;
9834;SDS011;69850;50.942;13.748;2023-09-12T08:18:42;11.85;;;7.00;;
9834;SDS011;69850;50.942;13.748;2023-09-12T08:22:03;10.40;;;6.72;;
9834;SDS011;69850;50.942;13.748;2023-09-12T08:25:24;10.90;;;6.43;;
9834;SDS011;69850;50.942;13.748;2023-09-12T08:28:45;13.75;;;7.00;;
9834;SDS011;69850;50.942;13.748;2023-09-12T08:32:05;12.55;;;6.28;;
9834;SDS011;69850;50.942;13.748;2023-09-12T08:35:26;12.07;;;7.07;;
9834;SDS011;69850;50.942;13.748;2023-09-12T08:38:47;15.05;;;6.13;;
9834;SDS011;69850;50.942;13.748;2023-09-12T08:42:07;13.40;;;7.40;;
9834;SDS011;69850;50.942;13.748;2023-09-12T08:45:32;13.68;;;6.97;;
9834;SDS011;69850;50.942;13.748;2023-09-12T08:48:56;11.27;;;7.90;;
9834;SDS011;69850;50.942;13.748;2023-09-12T08:52:17;13.15;;;7.50;;
9834;SDS011;69850;50.942;13.748;2023-09-12T08:55:38;15.73;;;6.97;;
9834;SDS011;69850;50.942;13.748;2023-09-12T08:58:59;14.30;;;7.70;;
9834;SDS011;69850;50.942;13.748;2023-09-12T09:02:20;8.77;;;7.10;;
9834;SDS011;69850;50.942;13.748;2023-09-12T09:05:42;11.93;;;6.80;;
9834;SDS011;69850;50.942;13.748;2023-09-12T09:09:06;15.57;;;7.20;;
9834;SDS011;69850;50.942;13.748;2023-09-12T09:12:28;11.45;;;7.35;;
9834;SDS011;69850;50.942;13.748;2023-09-12T09:15:48;12.30;;;7.30;;
9834;SDS011;69850;50.942;13.748;2023-09-12T09:19:09;136.23;;;12.05;;
9834;SDS011;69850;50.942;13.748;2023-09-12T09:22:30;9.98;;;7.05;;
9834;SDS011;69850;50.942;13.748;2023-09-12T09:25:52;16.05;;;7.40;;
9834;SDS011;69850;50.942;13.748;2023-09-12T09:29:14;16.15;;;7.68;;
9834;SDS011;69850;50.942;13.748;2023-09-12T09:32:36;11.10;;;7.80;;
9834;SDS011;69850;50.942;13.748;2023-09-12T09:36:03;12.25;;;7.53;;
9834;SDS011;69850;50.942;13.748;2023-09-12T09:39:25;12.55;;;7.10;;
9834;SDS011;69850;50.942;13.748;2023-09-12T09:42:53;13.23;;;6.97;;
9834;SDS011;69850;50.942;13.748;2023-09-12T09:46:15;12.55;;;7.30;;
9834;SDS011;69850;50.942;13.748;2023-09-12T09:49:36;11.90;;;7.13;;
9834;SDS011;69850;50.942;13.748;2023-09-12T09:52:57;12.07;;;6.80;;
9834;SDS011;69850;50.942;13.748;2023-09-12T09:56:17;13.85;;;6.93;;
9834;SDS011;69850;50.942;13.748;2023-09-12T09:59:38;9.88;;;6.75;;
9834;SDS011;69850;50.942;13.748;2023-09-12T10:02:59;16.77;;;6.97;;
9834;SDS011;69850;50.942;13.748;2023-09-12T10:06:24;8.82;;;6.25;;
9834;SDS011;69850;50.942;13.748;2023-09-12T10:09:46;14.15;;;7.13;;
9834;SDS011;69850;50.942;13.748;2023-09-12T10:13:07;11.63;;;7.03;;
9834;SDS011;69850;50.942;13.748;2023-09-12T10:16:32;14.27;;;6.78;;
9834;SDS011;69850;50.942;13.748;2023-09-12T10:19:55;15.88;;;7.05;;
9834;SDS011;69850;50.942;13.748;2023-09-12T10:23:19;15.85;;;6.32;;
9834;SDS011;69850;50.942;13.748;2023-09-12T10:26:42;13.25;;;6.82;;
9834;SDS011;69850;50.942;13.748;2023-09-12T10:30:05;12.60;;;6.50;;
9834;SDS011;69850;50.942;13.748;2023-09-12T10:33:27;14.13;;;6.28;;
9834;SDS011;69850;50.942;13.748;2023-09-12T10:36:51;12.82;;;6.13;;
9834;SDS011;69850;50.942;13.748;2023-09-12T10:40:13;14.63;;;6.22;;
9834;SDS011;69850;50.942;13.748;2023-09-12T10:43:35;12.55;;;5.88;;
9834;SDS011;69850;50.942;13.748;2023-09-12T10:46:57;27.38;;;7.15;;
9834;SDS011;69850;50.942;13.748;2023-09-12T10:50:19;527.28;;;24.67;;
9834;SDS011;69850;50.942;13.748;2023-09-12T10:53:44;16.42;;;6.40;;
9834;SDS011;69850;50.942;13.748;2023-09-12T10:57:09;24.58;;;7.40;;
9834;SDS011;69850;50.942;13.748;2023-09-12T11:00:36;15.02;;;6.45;;
9834;SDS011;69850;50.942;13.748;2023-09-12T11:04:05;16.98;;;6.68;;
9834;SDS011;69850;50.942;13.748;2023-09-12T11:11:19;12.60;;;6.00;;
9834;SDS011;69850;50.942;13.748;2023-09-12T11:15:02;17.10;;;6.70;;
9834;SDS011;69850;50.942;13.748;2023-09-12T11:18:25;13.70;;;6.38;;
9834;SDS011;69850;50.942;13.748;2023-09-12T11:21:47;13.65;;;6.10;;
9834;SDS011;69850;50.942;13.748;2023-09-12T11:25:18;16.20;;;5.85;;
9834;SDS011;69850;50.942;13.748;2023-09-12T11:28:43;16.58;;;6.20;;
9834;SDS011;69850;50.942;13.748;2023-09-12T11:32:04;14.85;;;6.25;;
9834;SDS011;69850;50.942;13.748;2023-09-12T11:35:29;17.08;;;6.97;;
9834;SDS011;69850;50.942;13.748;2023-09-12T11:38:50;9.15;;;5.93;;
9834;SDS011;69850;50.942;13.748;2023-09-12T11:42:11;13.25;;;6.47;;
9834;SDS011;69850;50.942;13.748;2023-09-12T11:45:33;12.52;;;6.60;;
9834;SDS011;69850;50.942;13.748;2023-09-12T11:48:56;14.15;;;6.38;;
9834;SDS011;69850;50.942;13.748;2023-09-12T11:52:17;16.27;;;6.63;;
9834;SDS011;69850;50.942;13.748;2023-09-12T11:55:43;11.50;;;6.57;;
9834;SDS011;69850;50.942;13.748;2023-09-12T11:59:05;11.45;;;5.90;;
9834;SDS011;69850;50.942;13.748;2023-09-12T12:02:26;17.00;;;6.45;;
9834;SDS011;69850;50.942;13.748;2023-09-12T12:05:47;18.23;;;6.72;;
9834;SDS011;69850;50.942;13.748;2023-09-12T12:09:08;18.17;;;6.43;;
9834;SDS011;69850;50.942;13.748;2023-09-12T12:12:29;21.20;;;6.93;;
9834;SDS011;69850;50.942;13.748;2023-09-12T12:15:50;16.90;;;7.05;;
9834;SDS011;69850;50.942;13.748;2023-09-12T12:19:11;17.58;;;7.45;;
9834;SDS011;69850;50.942;13.748;2023-09-12T12:22:33;21.83;;;7.13;;
9834;SDS011;69850;50.942;13.748;2023-09-12T12:25:54;22.13;;;7.05;;
9834;SDS011;69850;50.942;13.748;2023-09-12T12:29:14;22.50;;;6.78;;
9834;SDS011;69850;50.942;13.748;2023-09-12T12:32:45;18.60;;;6.78;;
9834;SDS011;69850;50.942;13.748;2023-09-12T12:36:07;14.55;;;6.72;;
9834;SDS011;69850;50.942;13.748;2023-09-12T12:39:28;18.77;;;7.35;;
9834;SDS011;69850;50.942;13.748;2023-09-12T12:42:49;18.02;;;6.65;;
9834;SDS011;69850;50.942;13.748;2023-09-12T12:46:10;14.32;;;6.57;;
9834;SDS011;69850;50.942;13.748;2023-09-12T12:49:38;17.77;;;6.95;;
9834;SDS011;69850;50.942;13.748;2023-09-12T12:53:03;20.48;;;6.93;;
9834;SDS011;69850;50.942;13.748;2023-09-12T12:56:26;15.40;;;6.40;;
9834;SDS011;69850;50.942;13.748;2023-09-12T12:59:48;13.75;;;6.57;;
9834;SDS011;69850;50.942;13.748;2023-09-12T13:03:09;11.65;;;6.00;;
9834;SDS011;69850;50.942;13.748;2023-09-12T13:06:29;12.80;;;6.05;;
9834;SDS011;69850;50.942;13.748;2023-09-12T13:09:50;17.05;;;6.80;;
9834;SDS011;69850;50.942;13.748;2023-09-12T13:13:11;16.85;;;6.80;;
9834;SDS011;69850;50.942;13.748;2023-09-12T13:16:31;13.05;;;6.40;;
9834;SDS011;69850;50.942;13.748;2023-09-12T13:19:54;15.02;;;6.75;;
9834;SDS011;69850;50.942;13.748;2023-09-12T13:23:14;18.38;;;6.85;;
9834;SDS011;69850;50.942;13.748;2023-09-12T13:26:35;18.33;;;6.95;;
9834;SDS011;69850;50.942;13.748;2023-09-12T13:29:56;13.70;;;6.93;;
9834;SDS011;69850;50.942;13.748;2023-09-12T13:33:17;15.60;;;7.22;;
9834;SDS011;69850;50.942;13.748;2023-09-12T13:36:37;18.38;;;7.22;;
9834;SDS011;69850;50.942;13.748;2023-09-12T13:39:58;16.85;;;6.93;;
9834;SDS011;69850;50.942;13.748;2023-09-12T13:43:20;19.20;;;6.93;;
9834;SDS011;69850;50.942;13.748;2023-09-12T13:46:41;17.20;;;6.80;;
9834;SDS011;69850;50.942;13.748;2023-09-12T13:50:04;20.08;;;7.07;;
9834;SDS011;69850;50.942;13.748;2023-09-12T13:53:25;18.52;;;6.93;;
9834;SDS011;69850;50.942;13.748;2023-09-12T13:56:46;13.38;;;7.45;;
9834;SDS011;69850;50.942;13.748;2023-09-12T14:00:07;12.00;;;6.90;;
9834;SDS011;69850;50.942;13.748;2023-09-12T14:03:29;17.92;;;6.90;;
9834;SDS011;69850;50.942;13.748;2023-09-12T14:06:50;16.50;;;7.13;;
9834;SDS011;69850;50.942;13.748;2023-09-12T14:10:12;20.75;;;6.82;;
9834;SDS011;69850;50.942;13.748;2023-09-12T14:13:33;17.67;;;6.90;;
9834;SDS011;69850;50.942;13.748;2023-09-12T14:16:54;16.35;;;7.88;;
9834;SDS011;69850;50.942;13.748;2023-09-12T14:20:15;18.38;;;7.25;;
9834;SDS011;69850;50.942;13.748;2023-09-12T14:23:35;17.73;;;6.70;;
9834;SDS011;69850;50.942;13.748;2023-09-12T14:26:56;18.20;;;7.07;;
9834;SDS011;69850;50.942;13.748;2023-09-12T14:30:17;19.60;;;7.60;;
9834;SDS011;69850;50.942;13.748;2023-09-12T14:33:38;15.63;;;6.93;;
9834;SDS011;69850;50.942;13.748;2023-09-12T14:36:59;19.13;;;7.20;;
9834;SDS011;69850;50.942;13.748;2023-09-12T14:40:20;21.40;;;7.47;;
9834;SDS011;69850;50.942;13.748;2023-09-12T14:43:40;15.80;;;7.00;;
9834;SDS011;69850;50.942;13.748;2023-09-12T14:47:01;17.05;;;7.18;;
9834;SDS011;69850;50.942;13.748;2023-09-12T14:50:22;21.27;;;7.25;;
9834;SDS011;69850;50.942;13.748;2023-09-12T14:53:44;16.73;;;6.93;;
9834;SDS011;69850;50.942;13.748;2023-09-12T14:57:06;20.92;;;7.43;;
9834;SDS011;69850;50.942;13.748;2023-09-12T15:00:27;24.25;;;7.80;;
9834;SDS011;69850;50.942;13.748;2023-09-12T15:03:48;14.70;;;6.97;;
9834;SDS011;69850;50.942;13.748;2023-09-12T15:07:09;16.60;;;6.88;;
9834;SDS011;69850;50.942;13.748;2023-09-12T15:10:29;20.42;;;7.15;;
9834;SDS011;69850;50.942;13.748;2023-09-12T15:13:50;14.25;;;7.07;;
9834;SDS011;69850;50.942;13.748;2023-09-12T15:17:11;13.35;;;6.75;;
9834;SDS011;69850;50.942;13.748;2023-09-12T15:20:32;17.92;;;6.97;;
9834;SDS011;69850;50.942;13.748;2023-09-12T15:23:52;13.02;;;6.70;;
9834;SDS011;69850;50.942;13.748;2023-09-12T15:27:13;17.48;;;6.57;;
9834;SDS011;69850;50.942;13.748;2023-09-12T15:30:34;17.73;;;6.80;;
9834;SDS011;69850;50.942;13.748;2023-09-12T15:33:55;21.40;;;7.32;;
9834;SDS011;69850;50.942;13.748;2023-09-12T15:37:17;14.82;;;7.10;;
9834;SDS011;69850;50.942;13.748;2023-09-12T15:40:38;14.93;;;7.00;;
9834;SDS011;69850;50.942;13.748;2023-09-12T15:43:58;17.08;;;7.15;;
9834;SDS011;69850;50.942;13.748;2023-09-12T15:47:19;15.73;;;7.20;;
9834;SDS011;69850;50.942;13.748;2023-09-12T15:50:40;16.02;;;7.40;;
9834;SDS011;69850;50.942;13.748;2023-09-12T15:54:02;18.05;;;6.80;;
9834;SDS011;69850;50.942;13.748;2023-09-12T15:57:22;16.38;;;6.85;;
9834;SDS011;69850;50.942;13.748;2023-09-12T16:00:43;15.45;;;7.20;;
9834;SDS011;69850;50.942;13.748;2023-09-12T16:04:04;19.40;;;7.00;;
9834;SDS011;69850;50.942;13.748;2023-09-12T16:07:25;14.25;;;6.55;;
9834;SDS011;69850;50.942;13.748;2023-09-12T16:10:46;14.55;;;6.88;;
9834;SDS011;69850;50.942;13.748;2023-09-12T16:14:08;12.85;;;6.68;;
9834;SDS011;69850;50.942;13.748;2023-09-12T16:17:29;15.95;;;6.70;;
9834;SDS011;69850;50.942;13.748;2023-09-12T16:20:50;18.38;;;6.55;;
9834;SDS011;69850;50.942;13.748;2023-09-12T16:24:11;15.57;;;6.47;;
9834;SDS011;69850;50.942;13.748;2023-09-12T16:27:32;17.35;;;6.35;;
9834;SDS011;69850;50.942;13.748;2023-09-12T16:30:52;17.73;;;6.57;;
9834;SDS011;69850;50.942;13.748;2023-09-12T16:34:13;23.23;;;6.60;;
9834;SDS011;69850;50.942;13.748;2023-09-12T16:37:34;20.25;;;6.72;;
9834;SDS011;69850;50.942;13.748;2023-09-12T16:40:55;15.68;;;7.00;;
9834;SDS011;69850;50.942;13.748;2023-09-12T16:44:16;13.90;;;7.28;;
9834;SDS011;69850;50.942;13.748;2023-09-12T16:47:36;17.55;;;7.00;;
9834;SDS011;69850;50.942;13.748;2023-09-12T16:50:57;19.13;;;6.25;;
9834;SDS011;69850;50.942;13.748;2023-09-12T16:54:18;18.83;;;7.00;;
9834;SDS011;69850;50.942;13.748;2023-09-12T16:57:39;11.23;;;6.22;;
9834;SDS011;69850;50.942;13.748;2023-09-12T17:01:00;12.48;;;7.43;;
9834;SDS011;69850;50.942;13.748;2023-09-12T17:04:21;19.35;;;6.55;;
9834;SDS011;69850;50.942;13.748;2023-09-12T17:07:42;13.85;;;6.35;;
9834;SDS011;69850;50.942;13.748;2023-09-12T17:11:03;16.25;;;7.00;;
9834;SDS011;69850;50.942;13.748;2023-09-12T17:14:23;14.13;;;7.63;;
9834;SDS011;69850;50.942;13.748;2023-09-12T17:17:44;17.60;;;7.35;;
9834;SDS011;69850;50.942;13.748;2023-09-12T17:21:06;11.82;;;7.25;;
9834;SDS011;69850;50.942;13.748;2023-09-12T17:24:26;13.90;;;7.00;;
9834;SDS011;69850;50.942;13.748;2023-09-12T17:27:47;15.95;;;6.88;;
9834;SDS011;69850;50.942;13.748;2023-09-12T17:31:08;14.20;;;6.72;;
9834;SDS011;69850;50.942;13.748;2023-09-12T17:34:45;17.23;;;7.07;;
9834;SDS011;69850;50.942;13.748;2023-09-12T17:38:10;14.93;;;6.75;;
9834;SDS011;69850;50.942;13.748;2023-09-12T17:41:31;19.65;;;7.15;;
9834;SDS011;69850;50.942;13.748;2023-09-12T17:44:52;18.13;;;7.43;;
9834;SDS011;69850;50.942;13.748;2023-09-12T17:48:13;21.10;;;7.78;;
9834;SDS011;69850;50.942;13.748;2023-09-12T17:51:34;24.20;;;7.28;;
9834;SDS011;69850;50.942;13.748;2023-09-12T17:54:55;21.52;;;6.85;;
9834;SDS011;69850;50.942;13.748;2023-09-12T17:58:15;23.63;;;7.78;;
9834;SDS011;69850;50.942;13.748;2023-09-12T18:01:36;21.33;;;7.75;;
9834;SDS011;69850;50.942;13.748;2023-09-12T18:04:57;24.17;;;9.90;;
9834;SDS011;69850;50.942;13.748;2023-09-12T18:08:17;22.95;;;9.57;;
9834;SDS011;69850;50.942;13.748;2023-09-12T18:11:38;21.48;;;8.10;;
9834;SDS011;69850;50.942;13.748;2023-09-12T18:14:59;18.05;;;7.50;;
9834;SDS011;69850;50.942;13.748;2023-09-12T18:18:20;16.77;;;7.47;;
9834;SDS011;69850;50.942;13.748;2023-09-12T18:21:40;13.30;;;7.07;;
9834;SDS011;69850;50.942;13.748;2023-09-12T18:25:01;26.15;;;11.38;;
9834;SDS011;69850;50.942;13.748;2023-09-12T18:36:44;16.73;;;8.23;;
9834;SDS011;69850;50.942;13.748;2023-09-12T18:40:07;19.48;;;7.93;;
9834;SDS011;69850;50.942;13.748;2023-09-12T18:43:28;19.27;;;8.38;;
9834;SDS011;69850;50.942;13.748;2023-09-12T18:46:49;15.82;;;8.02;;
9834;SDS011;69850;50.942;13.748;2023-09-12T18:50:09;18.55;;;7.97;;
9834;SDS011;69850;50.942;13.748;2023-09-12T18:53:30;15.85;;;8.70;;
9834;SDS011;69850;50.942;13.748;2023-09-12T18:56:51;18.88;;;7.65;;
9834;SDS011;69850;50.942;13.748;2023-09-12T19:00:12;13.50;;;7.95;;
9834;SDS011;69850;50.942;13.748;2023-09-12T19:03:36;17.38;;;8.07;;
9834;SDS011;69850;50.942;13.748;2023-09-12T19:06:59;13.70;;;8.13;;
9834;SDS011;69850;50.942;13.748;2023-09-12T19:10:20;16.02;;;8.02;;
9834;SDS011;69850;50.942;13.748;2023-09-12T19:13:40;16.83;;;8.50;;
9834;SDS011;69850;50.942;13.748;2023-09-12T19:17:02;17.52;;;8.63;;
9834;SDS011;69850;50.942;13.748;2023-09-12T19:20:23;14.85;;;8.50;;
9834;SDS011;69850;50.942;13.748;2023-09-12T19:23:43;15.82;;;8.48;;
9834;SDS011;69850;50.942;13.748;2023-09-12T19:27:05;18.02;;;8.80;;
9834;SDS011;69850;50.942;13.748;2023-09-12T19:30:26;17.70;;;8.98;;
9834;SDS011;69850;50.942;13.748;2023-09-12T19:33:46;18.65;;;8.85;;
9834;SDS011;69850;50.942;13.748;2023-09-12T19:37:10;17.92;;;8.65;;
9834;SDS011;69850;50.942;13.748;2023-09-12T19:40:31;14.45;;;8.65;;
9834;SDS011;69850;50.942;13.748;2023-09-12T19:43:52;18.75;;;9.02;;
9834;SDS011;69850;50.942;13.748;2023-09-12T19:47:14;16.80;;;8.85;;
9834;SDS011;69850;50.942;13.748;2023-09-12T19:50:36;15.88;;;9.27;;
9834;SDS011;69850;50.942;13.748;2023-09-12T19:53:57;21.25;;;9.75;;
9834;SDS011;69850;50.942;13.748;2023-09-12T19:57:18;20.20;;;9.70;;
9834;SDS011;69850;50.942;13.748;2023-09-12T20:00:41;17.70;;;9.80;;
9834;SDS011;69850;50.942;13.748;2023-09-12T20:04:03;20.33;;;9.70;;